Danville, KY (40423)

11:32 AM EST on January 30, 2015 (GMT -0500)
Berwick Drive | Change Station
CLOSE
Current Station
Personal Weather Station
Location: Danville, KY
Elevation: 980 ft
Nearby Weather Stations

Elev 980 ft 37.66 °N, 84.79 °W | Updated 1 minute ago

Overcast
Overcast
35.0 °F
Feels Like 32 °F
N
4.0
Wind Variable Wind from WSW
Gusts 4.0 mph

Today
High -- | Low -- °F
--% Chance of Precip.
Yesterday
High -- | Low -- °F
Precip. -- in
7:44 AM 6:00 PM
Waxing Gibbous, 83% visible
Pressure 30.42 in
Visibility 10.0 miles
Clouds Scattered Clouds 3600 ft
Mostly Cloudy 4100 ft
Overcast 4900 ft
Windchill 32 °F
Dew Point 25 °F
Humidity 66%
Rainfall 0.00 in
Snow Depth Not available.
UV 1 out of 12
Pollen .10 out of 12
Air Quality Not available.
Flu Activity Not available.
METAR KDVK 301615Z AUTO 01013G18KT 10SM SCT036 BKN041 OVC049 01/M05 A3042 RMK AO2

More Conditions Fewer Conditions

Pressure 30.42 in
Visibility 10.0 miles
Clouds Scattered Clouds 3600 ft
Mostly Cloudy 4100 ft
Overcast 4900 ft
Windchill 32 °F
Dew Point 25 °F
Humidity 66%
Rainfall 0.00 in
Snow Depth Not available.
UV 1 out of 12
Pollen .10 out of 12
Air Quality Not available.
Flu Activity Not available.
METAR KDVK 301615Z AUTO 01013G18KT 10SM SCT036 BKN041 OVC049 01/M05 A3042 RMK AO2

More Conditions Fewer Conditions

10-Day Weather Forecast

Almanac

Astronomy

Jan. 30, 2015 Rise Set
Actual Time
Civil Twilight
Nautical Twilight
Astronomical Twilight
Moon
Length of Visible Light
Length of Day
Tomorrow will be .
, % of the Moon is Illuminated

Today's Extremes

State Highs State Lows

Community

WunderPhotos

Upload Photos

1,791,810 photos uploaded!

WunderBlogs® & News

Nearby

Air Quality

  Air Quality AQ Index Pollutant
Not available.

Snow Depth

Station Depth Elevation

Earthquake Activity

City Distance Mag. Time & Date
Minimum magnitude displayed is 2.5.

Coastal Water Temperatures

Place Temperature

Nearby Weather Stations